Time;durP1;ratioP1;P1;durP2;ratioP2;P2;SDS_P1;SDS_P2;PMS_P1;PMS_P2;Temp;Humidity;BMP_temperature;BMP_pressure;BME280_temperature;BME280_humidity;BME280_pressure;Samples;Min_cycle;Max_cycle;Signal;HPM_P1;HPM_P2
2022/03/29 00:00:38;;;;;;;26.47;17.00;;;7.50;99.90;;;;;;5081093;28;20213;-70
2022/03/29 00:03:22;;;;;;;25.60;16.83;;;7.50;99.90;;;;;;5071281;28;20180;-72
2022/03/29 00:06:06;;;;;;;25.40;16.23;;;7.50;99.90;;;;;;5070083;28;20255;-69
2022/03/29 00:08:51;;;;;;;23.03;16.23;;;7.50;99.90;;;;;;5057316;28;20208;-71
2022/03/29 00:11:35;;;;;;;24.90;16.87;;;7.50;99.90;;;;;;5089585;28;20577;-70
2022/03/29 00:14:19;;;;;;;24.60;16.03;;;7.50;99.90;;;;;;5073957;28;20260;-70
2022/03/29 00:17:03;;;;;;;25.13;16.93;;;7.50;99.90;;;;;;5070650;28;20548;-70
2022/03/29 00:19:48;;;;;;;22.03;15.20;;;7.50;99.90;;;;;;5094389;28;20190;-70
2022/03/29 00:22:32;;;;;;;23.27;14.80;;;7.50;99.90;;;;;;5089901;28;20240;-69
2022/03/29 00:25:18;;;;;;;27.37;16.13;;;7.40;99.90;;;;;;5065705;28;20240;-70
2022/03/29 00:28:02;;;;;;;22.50;15.13;;;7.40;99.90;;;;;;5072487;28;20355;-69
2022/03/29 00:30:46;;;;;;;21.90;15.40;;;7.40;99.90;;;;;;5077147;28;20197;-69
2022/03/29 00:33:31;;;;;;;25.97;15.80;;;7.40;99.90;;;;;;5073363;28;20194;-69
2022/03/29 00:36:15;;;;;;;23.87;15.00;;;7.40;99.90;;;;;;5078856;28;20214;-70
2022/03/29 00:39:00;;;;;;;22.80;14.80;;;7.40;99.90;;;;;;5071672;28;20221;-69
2022/03/29 00:41:44;;;;;;;21.93;14.60;;;7.30;99.90;;;;;;5094340;28;20336;-70
2022/03/29 00:44:33;;;;;;;27.10;15.43;;;7.20;99.90;;;;;;5085060;28;20197;-71
2022/03/29 00:47:18;;;;;;;23.93;15.77;;;7.30;99.90;;;;;;5071730;28;20186;-69
2022/03/29 00:50:04;;;;;;;22.67;15.40;;;7.20;99.90;;;;;;5094135;28;20221;-70
2022/03/29 00:52:48;;;;;;;23.87;16.00;;;7.20;99.90;;;;;;5091557;28;20169;-70
2022/03/29 00:55:32;;;;;;;24.13;15.37;;;7.10;99.90;;;;;;5064798;28;20705;-71
2022/03/29 00:58:17;;;;;;;24.07;15.40;;;7.10;99.90;;;;;;5098126;28;20188;-70
2022/03/29 01:01:04;;;;;;;21.70;14.60;;;7.10;99.90;;;;;;5079307;28;20217;-70
2022/03/29 01:03:48;;;;;;;20.63;13.83;;;7.10;99.90;;;;;;5090755;28;20216;-70
2022/03/29 01:06:33;;;;;;;18.57;12.90;;;7.10;99.90;;;;;;5073610;28;20228;-70
2022/03/29 01:09:21;;;;;;;22.13;13.87;;;7.10;99.90;;;;;;5079688;28;20262;-71
2022/03/29 01:12:05;;;;;;;19.03;13.30;;;7.00;99.90;;;;;;5074662;28;20174;-70
2022/03/29 01:14:51;;;;;;;23.13;14.93;;;7.00;99.90;;;;;;5089260;28;20184;-70
2022/03/29 01:17:39;;;;;;;19.47;13.90;;;7.00;99.90;;;;;;5087117;28;20205;-69
2022/03/29 01:20:27;;;;;;;20.00;13.97;;;6.90;99.90;;;;;;5084602;28;20252;-70
2022/03/29 01:23:12;;;;;;;21.00;13.87;;;7.00;99.90;;;;;;5097842;28;20198;-69
2022/03/29 01:25:56;;;;;;;19.10;13.40;;;7.00;99.90;;;;;;5071976;28;20185;-71
2022/03/29 01:28:42;;;;;;;21.67;14.53;;;6.90;99.90;;;;;;5085188;28;20218;-71
2022/03/29 01:31:28;;;;;;;19.83;14.30;;;7.00;99.90;;;;;;5095670;28;20209;-70
2022/03/29 01:34:13;;;;;;;22.57;15.30;;;7.00;99.90;;;;;;5084492;28;20244;-70
2022/03/29 01:36:57;;;;;;;20.37;14.50;;;6.90;99.90;;;;;;5078814;28;20176;-70
2022/03/29 01:39:42;;;;;;;23.27;14.33;;;6.90;99.90;;;;;;5060684;28;20201;-70
2022/03/29 01:42:26;;;;;;;22.07;14.73;;;6.90;99.90;;;;;;5078180;28;20204;-70
2022/03/29 01:45:10;;;;;;;21.40;15.00;;;6.90;99.90;;;;;;5070412;28;20201;-69
2022/03/29 01:47:54;;;;;;;23.07;14.83;;;6.90;99.90;;;;;;5076536;28;20282;-70
2022/03/29 01:50:39;;;;;;;22.33;14.53;;;6.90;99.90;;;;;;5063759;28;20206;-71
2022/03/29 01:53:28;;;;;;;22.13;15.53;;;6.80;99.90;;;;;;5064880;28;20208;-71
2022/03/29 01:56:12;;;;;;;21.20;13.93;;;6.80;99.90;;;;;;5090289;28;20178;-70
2022/03/29 01:58:57;;;;;;;20.70;14.00;;;6.90;99.90;;;;;;5092411;28;20231;-71
2022/03/29 02:01:50;;;;;;;22.50;15.37;;;6.90;99.90;;;;;;5073085;28;20244;-70
2022/03/29 02:04:34;;;;;;;22.60;14.20;;;6.90;99.90;;;;;;5065558;28;20648;-70
2022/03/29 02:07:19;;;;;;;24.60;13.23;;;6.90;99.90;;;;;;5063048;28;20205;-70
2022/03/29 02:10:06;;;;;;;19.97;12.80;;;6.90;99.90;;;;;;5085331;28;20224;-70
2022/03/29 02:12:51;;;;;;;23.77;13.37;;;6.90;99.90;;;;;;5083325;28;20212;-70
2022/03/29 02:15:39;;;;;;;20.90;14.27;;;6.90;99.90;;;;;;5069547;28;20177;-70
2022/03/29 02:18:24;;;;;;;20.87;14.67;;;6.90;99.90;;;;;;5070667;28;20221;-71
2022/03/29 02:21:08;;;;;;;19.20;13.47;;;6.90;99.90;;;;;;5084376;28;20279;-69
2022/03/29 02:23:52;;;;;;;19.47;12.90;;;6.90;99.90;;;;;;5084262;28;20308;-70
2022/03/29 02:26:36;;;;;;;18.30;12.50;;;6.90;99.90;;;;;;5065072;28;20260;-70
2022/03/29 02:29:20;;;;;;;21.90;12.70;;;6.90;99.90;;;;;;5101007;28;20591;-70
2022/03/29 02:32:05;;;;;;;21.83;13.40;;;6.90;99.90;;;;;;5084523;28;20197;-70
2022/03/29 02:34:50;;;;;;;21.37;14.50;;;6.90;99.90;;;;;;5070365;28;20201;-70
2022/03/29 02:37:34;;;;;;;23.53;13.53;;;6.90;99.90;;;;;;5068821;28;20232;-70
2022/03/29 02:40:19;;;;;;;21.93;13.90;;;6.90;99.90;;;;;;5079589;28;20724;-70
2022/03/29 02:43:03;;;;;;;19.83;13.60;;;6.90;99.90;;;;;;5093907;28;20607;-70
2022/03/29 02:45:48;;;;;;;22.90;14.00;;;6.90;99.90;;;;;;5101274;28;20292;-70
2022/03/29 02:48:32;;;;;;;22.17;14.17;;;6.90;99.90;;;;;;5057776;28;20781;-70
2022/03/29 02:51:17;;;;;;;19.47;12.63;;;6.80;99.90;;;;;;5058133;28;20214;-70
2022/03/29 02:54:01;;;;;;;21.20;13.77;;;6.80;99.90;;;;;;5071513;28;20213;-70
2022/03/29 02:56:46;;;;;;;20.83;13.60;;;6.80;99.90;;;;;;5088780;28;20299;-70
2022/03/29 02:59:30;;;;;;;22.93;13.33;;;6.80;99.90;;;;;;5072370;28;20546;-70
2022/03/29 03:02:14;;;;;;;22.20;12.73;;;6.80;99.90;;;;;;5082953;28;20277;-70
2022/03/29 03:04:59;;;;;;;21.43;13.23;;;6.80;99.90;;;;;;5089298;28;20197;-70
2022/03/29 03:07:44;;;;;;;20.53;13.77;;;6.90;99.90;;;;;;5083589;28;20194;-70
2022/03/29 03:10:29;;;;;;;21.77;13.47;;;6.80;99.90;;;;;;5064031;28;20246;-69
2022/03/29 03:13:13;;;;;;;23.07;14.70;;;6.80;99.90;;;;;;5070363;28;20616;-70
2022/03/29 03:15:57;;;;;;;24.07;14.23;;;6.80;99.90;;;;;;5083636;28;20233;-70
2022/03/29 03:18:41;;;;;;;22.17;14.70;;;6.90;99.90;;;;;;5068911;28;20174;-70
2022/03/29 03:21:29;;;;;;;22.43;14.50;;;6.90;99.90;;;;;;5077036;28;20242;-72
2022/03/29 03:24:13;;;;;;;22.67;14.33;;;6.90;99.90;;;;;;5096578;28;20196;-72
2022/03/29 03:26:58;;;;;;;25.23;14.30;;;6.90;99.90;;;;;;5072420;28;20297;-70
2022/03/29 03:29:44;;;;;;;23.50;15.10;;;6.90;99.90;;;;;;5072845;28;20702;-70
2022/03/29 03:32:28;;;;;;;23.73;14.60;;;6.90;99.90;;;;;;5079661;28;20247;-70
2022/03/29 03:35:12;;;;;;;22.70;14.60;;;6.90;99.90;;;;;;5075910;28;20239;-70
2022/03/29 03:37:57;;;;;;;22.60;13.80;;;6.80;99.90;;;;;;5081668;28;20305;-70
2022/03/29 03:40:42;;;;;;;22.87;15.30;;;6.80;99.90;;;;;;5089458;28;20857;-70
2022/03/29 03:43:26;;;;;;;25.40;14.67;;;6.80;99.90;;;;;;5077705;28;20285;-71
2022/03/29 03:46:10;;;;;;;27.30;15.60;;;6.80;99.90;;;;;;5091219;28;20181;-70
2022/03/29 03:48:55;;;;;;;24.80;15.90;;;6.80;99.90;;;;;;5072427;28;20209;-71
2022/03/29 03:51:39;;;;;;;26.87;15.93;;;6.80;99.90;;;;;;5086709;28;20245;-71
2022/03/29 03:54:23;;;;;;;25.90;14.43;;;6.80;99.90;;;;;;5077452;28;20262;-70
2022/03/29 03:57:08;;;;;;;26.23;14.67;;;6.80;99.90;;;;;;5099298;28;20271;-70
2022/03/29 03:59:55;;;;;;;24.33;13.97;;;6.80;99.90;;;;;;5077952;28;20260;-70
2022/03/29 04:02:40;;;;;;;25.23;15.47;;;6.80;99.90;;;;;;5094319;28;20194;-71
2022/03/29 04:05:26;;;;;;;23.77;14.93;;;6.80;99.90;;;;;;5086482;28;20204;-71
2022/03/29 04:08:10;;;;;;;23.33;14.27;;;6.80;99.90;;;;;;5090227;28;20213;-70
2022/03/29 04:10:55;;;;;;;24.93;15.00;;;6.80;99.90;;;;;;5087100;28;20269;-70
2022/03/29 04:13:40;;;;;;;25.27;15.57;;;6.80;99.90;;;;;;5074840;28;20229;-71
2022/03/29 04:16:24;;;;;;;22.30;13.83;;;6.80;99.90;;;;;;5084390;28;20243;-70
2022/03/29 04:19:11;;;;;;;24.17;15.00;;;6.80;99.90;;;;;;5077706;28;20190;-70
2022/03/29 04:21:55;;;;;;;30.17;15.50;;;6.80;99.90;;;;;;5086761;28;20232;-71
2022/03/29 04:24:39;;;;;;;25.30;14.90;;;6.80;99.90;;;;;;5071786;28;20248;-70
2022/03/29 04:27:23;;;;;;;24.37;15.13;;;6.80;99.90;;;;;;5076526;28;20189;-71
2022/03/29 04:30:09;;;;;;;20.00;14.20;;;6.70;99.90;;;;;;5070781;28;20222;-71
2022/03/29 04:32:54;;;;;;;23.23;14.53;;;6.80;99.90;;;;;;5088655;28;20553;-71
2022/03/29 04:35:38;;;;;;;26.73;15.07;;;6.80;99.90;;;;;;5076513;28;20197;-70
2022/03/29 04:38:23;;;;;;;21.27;14.17;;;6.80;99.90;;;;;;5086626;28;20567;-71
2022/03/29 04:41:07;;;;;;;23.87;13.93;;;6.80;99.90;;;;;;5089586;28;20214;-71
2022/03/29 04:43:52;;;;;;;24.53;14.37;;;6.80;99.90;;;;;;5061871;28;20226;-70
2022/03/29 04:46:37;;;;;;;24.47;14.43;;;6.80;99.90;;;;;;5072234;28;20197;-70
2022/03/29 04:49:21;;;;;;;25.53;15.67;;;6.70;99.90;;;;;;5067977;28;20213;-72
2022/03/29 04:52:06;;;;;;;27.90;14.80;;;6.70;99.90;;;;;;5094686;28;20210;-70
2022/03/29 04:54:50;;;;;;;22.03;13.97;;;6.70;99.90;;;;;;5071326;28;20216;-70
2022/03/29 04:57:34;;;;;;;26.20;13.87;;;6.70;99.90;;;;;;5085569;28;20311;-70
2022/03/29 05:00:23;;;;;;;25.90;14.73;;;6.70;99.90;;;;;;5085313;28;20260;-70
2022/03/29 05:03:07;;;;;;;24.97;13.80;;;6.70;99.90;;;;;;5065087;28;20206;-70
2022/03/29 05:05:51;;;;;;;24.47;13.90;;;6.80;99.90;;;;;;5089031;28;20202;-70
2022/03/29 05:08:35;;;;;;;24.30;13.93;;;6.70;99.90;;;;;;5071459;28;20198;-70
2022/03/29 05:11:20;;;;;;;24.60;14.73;;;6.70;99.90;;;;;;5078049;28;20229;-70
2022/03/29 05:14:04;;;;;;;28.77;14.63;;;6.70;99.90;;;;;;5092460;28;20170;-71
2022/03/29 05:16:49;;;;;;;25.70;14.83;;;6.70;99.90;;;;;;5079083;28;20609;-71
2022/03/29 05:19:33;;;;;;;25.53;14.50;;;6.70;99.90;;;;;;5069842;28;20231;-72
2022/03/29 05:22:17;;;;;;;23.73;13.93;;;6.70;99.90;;;;;;5076884;28;20205;-71
2022/03/29 05:25:01;;;;;;;30.43;16.13;;;6.70;99.90;;;;;;5063747;28;20273;-71
2022/03/29 05:27:46;;;;;;;30.20;14.73;;;6.70;99.90;;;;;;5086002;28;20208;-71
2022/03/29 05:30:30;;;;;;;24.67;15.17;;;6.70;99.90;;;;;;5065812;28;20221;-70
2022/03/29 05:33:16;;;;;;;28.27;15.93;;;6.70;99.90;;;;;;5078206;28;20235;-71
2022/03/29 05:36:02;;;;;;;25.50;15.00;;;6.70;99.90;;;;;;5080303;28;20190;-70
2022/03/29 05:38:51;;;;;;;28.73;16.00;;;6.70;99.90;;;;;;5081004;28;20212;-71
2022/03/29 05:41:35;;;;;;;25.50;14.33;;;6.70;99.90;;;;;;5070789;28;20237;-71
2022/03/29 05:44:19;;;;;;;25.37;15.53;;;6.70;99.90;;;;;;5072943;28;20201;-71
2022/03/29 05:50:08;;;;;;;25.67;13.77;;;6.70;99.90;;;;;;5069997;28;20245;-71
2022/03/29 05:52:53;;;;;;;27.33;14.97;;;6.70;99.90;;;;;;5074939;28;20206;-70
2022/03/29 05:55:37;;;;;;;24.23;14.37;;;6.70;99.90;;;;;;5091533;28;20193;-71
2022/03/29 05:58:22;;;;;;;28.07;15.73;;;6.70;99.90;;;;;;5097967;28;20225;-71
2022/03/29 06:01:06;;;;;;;24.73;14.47;;;6.70;99.90;;;;;;5077567;28;20263;-71
2022/03/29 06:03:50;;;;;;;25.57;15.30;;;6.70;99.90;;;;;;5074765;28;20270;-70
2022/03/29 06:06:36;;;;;;;25.80;16.17;;;6.70;99.90;;;;;;5056744;28;20177;-71
2022/03/29 06:09:21;;;;;;;27.37;15.20;;;6.80;99.90;;;;;;5090838;28;20205;-71
2022/03/29 06:12:06;;;;;;;26.07;15.13;;;6.80;99.90;;;;;;5084575;28;20294;-71
2022/03/29 06:14:51;;;;;;;24.83;14.40;;;6.80;99.90;;;;;;5077558;28;20169;-70
2022/03/29 06:17:38;;;;;;;30.90;15.17;;;6.80;99.90;;;;;;5074824;28;20189;-71
2022/03/29 06:20:23;;;;;;;27.17;15.20;;;6.80;99.90;;;;;;5065182;28;20233;-71
2022/03/29 06:23:07;;;;;;;29.60;15.30;;;6.80;99.90;;;;;;5069659;28;20221;-71
2022/03/29 06:25:51;;;;;;;25.73;14.80;;;6.80;99.90;;;;;;5071896;28;20265;-71
2022/03/29 06:28:35;;;;;;;33.67;15.47;;;6.90;99.90;;;;;;5070530;28;20278;-72
2022/03/29 06:31:23;;;;;;;28.97;14.73;;;6.80;99.90;;;;;;5090579;28;20213;-71
2022/03/29 06:34:07;;;;;;;31.07;15.57;;;6.80;99.90;;;;;;5075312;28;20190;-71
2022/03/29 06:36:52;;;;;;;24.83;14.37;;;6.90;99.90;;;;;;5072697;28;20201;-71
2022/03/29 06:39:36;;;;;;;31.50;15.70;;;6.80;99.90;;;;;;5068843;28;20261;-72
2022/03/29 06:42:20;;;;;;;27.03;15.67;;;6.80;99.90;;;;;;5090279;28;20193;-72
2022/03/29 06:45:05;;;;;;;25.87;14.13;;;6.80;99.90;;;;;;5101553;28;20176;-72
2022/03/29 06:47:50;;;;;;;31.90;15.93;;;6.80;99.90;;;;;;5079250;28;20208;-71
2022/03/29 06:50:35;;;;;;;25.60;15.00;;;6.90;99.90;;;;;;5078276;28;20233;-72
2022/03/29 06:53:19;;;;;;;28.70;16.03;;;6.90;99.90;;;;;;5087664;28;20561;-72
2022/03/29 06:56:03;;;;;;;26.07;15.77;;;6.90;99.90;;;;;;5085371;28;20189;-71
2022/03/29 06:58:48;;;;;;;27.47;15.00;;;6.90;99.90;;;;;;5089004;28;20181;-72
2022/03/29 07:01:32;;;;;;;24.67;14.40;;;6.90;99.90;;;;;;5071694;28;20303;-72
2022/03/29 07:04:17;;;;;;;28.37;15.57;;;7.00;99.90;;;;;;5082469;28;20189;-72
2022/03/29 07:07:01;;;;;;;25.87;15.23;;;6.90;99.90;;;;;;5081860;28;20679;-71
2022/03/29 07:12:58;;;;;;;31.17;15.27;;;7.00;99.90;;;;;;5071941;28;20610;-72
2022/03/29 07:15:42;;;;;;;32.93;15.67;;;7.10;99.90;;;;;;5072826;28;20174;-72
2022/03/29 07:18:27;;;;;;;27.87;14.87;;;7.10;99.90;;;;;;5066228;28;20237;-72
2022/03/29 07:21:11;;;;;;;30.13;15.20;;;7.00;99.90;;;;;;5072549;28;20230;-70
2022/03/29 07:23:55;;;;;;;24.67;15.17;;;7.10;99.90;;;;;;5078674;28;20198;-70
2022/03/29 07:26:40;;;;;;;27.30;14.97;;;7.00;99.90;;;;;;5093951;28;20680;-71
2022/03/29 07:29:25;;;;;;;30.47;14.70;;;7.10;99.90;;;;;;5077815;28;20220;-70
2022/03/29 07:32:10;;;;;;;23.97;14.50;;;7.10;99.90;;;;;;5071735;28;20625;-72
2022/03/29 07:34:55;;;;;;;30.20;15.57;;;7.10;99.90;;;;;;5082543;28;20217;-71
2022/03/29 07:37:40;;;;;;;23.40;14.40;;;7.20;99.90;;;;;;5078010;28;20190;-72
2022/03/29 07:40:27;;;;;;;25.37;15.23;;;7.20;99.90;;;;;;5069215;28;20246;-72
2022/03/29 07:43:12;;;;;;;24.90;15.30;;;7.20;99.90;;;;;;5072331;28;20189;-71
2022/03/29 07:45:57;;;;;;;25.53;15.10;;;7.30;99.90;;;;;;5085685;28;20225;-72
2022/03/29 07:48:41;;;;;;;29.90;15.47;;;7.30;99.90;;;;;;5065700;28;20216;-72
2022/03/29 07:51:25;;;;;;;27.57;15.23;;;7.30;99.90;;;;;;5072019;28;20209;-72
2022/03/29 07:54:10;;;;;;;32.10;15.67;;;7.30;99.90;;;;;;5071237;28;20189;-72
2022/03/29 07:56:54;;;;;;;27.57;14.53;;;7.40;99.90;;;;;;5078664;28;20244;-72
2022/03/29 07:59:38;;;;;;;25.77;14.20;;;7.40;99.90;;;;;;5081059;28;20197;-71
2022/03/29 08:02:23;;;;;;;27.40;15.93;;;7.50;99.90;;;;;;5088141;28;20194;-72
2022/03/29 08:05:07;;;;;;;29.20;15.67;;;7.50;99.90;;;;;;5072276;28;20284;-72
2022/03/29 08:07:52;;;;;;;26.83;14.90;;;7.50;99.90;;;;;;5070190;28;20182;-71
2022/03/29 08:10:36;;;;;;;26.13;15.20;;;7.50;99.90;;;;;;5072590;28;20210;-71
2022/03/29 08:13:22;;;;;;;25.67;14.93;;;7.60;99.90;;;;;;5076101;28;20181;-72
2022/03/29 08:16:06;;;;;;;29.03;15.30;;;7.60;99.90;;;;;;5075400;28;20217;-72
2022/03/29 08:18:50;;;;;;;31.00;15.97;;;7.60;99.90;;;;;;5067632;28;20214;-70
2022/03/29 08:21:49;;;;;;;26.57;15.43;;;7.60;99.90;;;;;;5066961;28;20214;-71
2022/03/29 08:24:34;;;;;;;27.97;15.37;;;7.70;99.90;;;;;;5078805;28;20316;-73
2022/03/29 08:27:19;;;;;;;33.47;15.97;;;7.70;99.90;;;;;;5075403;28;20177;-71
2022/03/29 08:30:04;;;;;;;28.77;14.63;;;7.70;99.90;;;;;;5071305;28;20220;-70
2022/03/29 08:32:49;;;;;;;33.30;15.00;;;7.80;99.90;;;;;;5072847;28;20255;-70
2022/03/29 08:35:35;;;;;;;26.03;14.80;;;7.80;99.90;;;;;;5074840;28;20221;-70
2022/03/29 08:38:19;;;;;;;27.57;15.07;;;7.90;99.90;;;;;;5084551;28;20189;-70
2022/03/29 08:41:05;;;;;;;29.03;14.73;;;7.90;99.90;;;;;;5085083;28;20228;-70
2022/03/29 08:43:49;;;;;;;25.67;13.80;;;7.90;99.90;;;;;;5085724;28;20171;-70
2022/03/29 08:46:38;;;;;;;29.37;15.70;;;8.00;99.90;;;;;;5085117;28;20198;-70
2022/03/29 08:49:23;;;;;;;27.83;14.37;;;8.00;99.90;;;;;;5068109;28;20574;-70
2022/03/29 08:52:08;;;;;;;32.97;14.60;;;8.10;99.90;;;;;;5103883;28;20217;-70
2022/03/29 08:54:53;;;;;;;23.97;14.93;;;8.10;99.90;;;;;;5091875;28;20598;-69
2022/03/29 08:57:38;;;;;;;32.53;14.87;;;8.10;99.90;;;;;;5067931;28;20218;-70
2022/03/29 09:00:26;;;;;;;24.10;13.63;;;8.20;99.90;;;;;;5065908;28;20248;-70
2022/03/29 09:03:11;;;;;;;26.00;13.63;;;8.20;99.90;;;;;;5083000;28;20281;-70
2022/03/29 09:06:09;;;;;;;25.13;14.17;;;8.30;99.90;;;;;;5090708;28;20212;-69
2022/03/29 09:08:54;;;;;;;28.30;15.37;;;8.30;99.90;;;;;;5069479;28;20214;-71
2022/03/29 09:11:41;;;;;;;26.60;15.17;;;8.30;99.90;;;;;;5082514;28;20290;-70
2022/03/29 09:14:29;;;;;;;23.23;13.90;;;8.30;99.90;;;;;;5070647;28;20228;-70
2022/03/29 09:17:38;;;;;;;29.37;15.20;;;8.30;99.90;;;;;;5085638;28;20270;-71
2022/03/29 09:20:24;;;;;;;22.67;14.03;;;8.40;99.90;;;;;;5062991;28;20301;-71
2022/03/29 09:23:17;;;;;;;22.47;13.83;;;8.40;99.90;;;;;;5073034;28;20213;-69
2022/03/29 09:26:02;;;;;;;25.77;13.90;;;8.50;99.90;;;;;;5071271;28;20701;-70
2022/03/29 09:28:50;;;;;;;25.10;13.80;;;8.50;99.90;;;;;;5067573;28;20209;-71
2022/03/29 09:31:35;;;;;;;24.83;13.97;;;8.50;99.90;;;;;;5076294;28;20213;-70
2022/03/29 09:34:20;;;;;;;34.70;15.27;;;8.60;99.90;;;;;;5073369;28;20232;-70
2022/03/29 09:37:05;;;;;;;24.63;14.33;;;8.60;99.90;;;;;;5070767;28;20617;-71
2022/03/29 09:39:50;;;;;;;30.93;14.53;;;8.60;99.90;;;;;;5068054;28;20188;-70
2022/03/29 09:42:35;;;;;;;23.97;14.43;;;8.70;99.90;;;;;;5064115;28;20240;-70
2022/03/29 09:45:38;;;;;;;24.23;14.20;;;8.70;99.90;;;;;;5073751;28;20186;-70
2022/03/29 09:48:22;;;;;;;26.17;14.43;;;8.80;99.90;;;;;;5064552;28;20218;-70
2022/03/29 09:51:10;;;;;;;30.20;14.37;;;8.80;99.90;;;;;;5061983;28;20214;-70
2022/03/29 09:53:57;;;;;;;31.53;14.50;;;8.80;99.90;;;;;;5061391;28;20264;-70
2022/03/29 09:56:50;;;;;;;27.20;15.33;;;8.80;99.90;;;;;;5062084;28;20214;-72
2022/03/29 09:59:47;;;;;;;25.60;14.23;;;8.80;99.90;;;;;;5064540;28;20704;-70
2022/03/29 10:02:33;;;;;;;26.13;14.23;;;8.90;99.90;;;;;;5076962;28;20261;-70
2022/03/29 10:05:19;;;;;;;27.67;13.43;;;8.90;99.90;;;;;;5075599;28;20225;-70
2022/03/29 10:11:09;;;;;;;25.63;13.63;;;8.90;99.90;;;;;;5064366;28;20372;-70
2022/03/29 10:13:54;;;;;;;28.37;15.70;;;9.10;99.90;;;;;;5065354;28;20236;-70
2022/03/29 10:16:38;;;;;;;28.93;14.67;;;9.10;99.90;;;;;;5061703;28;20272;-70
2022/03/29 10:19:24;;;;;;;22.70;13.53;;;9.10;99.90;;;;;;5078396;28;20294;-71
2022/03/29 10:22:08;;;;;;;25.37;14.43;;;9.10;99.90;;;;;;5063749;28;20226;-71
2022/03/29 10:24:53;;;;;;;22.17;14.53;;;9.20;99.90;;;;;;5075581;28;20201;-70
2022/03/29 10:27:39;;;;;;;27.23;14.43;;;9.20;99.90;;;;;;5059274;28;20751;-70
2022/03/29 10:30:44;;;;;;;25.13;13.80;;;9.20;99.90;;;;;;5062416;28;20237;-70
2022/03/29 10:33:31;;;;;;;24.07;13.80;;;9.30;99.90;;;;;;5058124;28;20186;-69
2022/03/29 10:36:15;;;;;;;25.27;14.00;;;9.40;99.90;;;;;;5059725;28;20242;-70
2022/03/29 10:39:00;;;;;;;24.30;14.53;;;9.40;99.90;;;;;;5076789;28;20189;-70
2022/03/29 10:41:44;;;;;;;22.37;13.80;;;9.50;99.90;;;;;;5076095;28;20225;-70
2022/03/29 10:44:58;;;;;;;24.10;14.43;;;9.60;99.90;;;;;;5060780;28;20190;-69
2022/03/29 10:47:59;;;;;;;26.33;13.93;;;9.60;99.90;;;;;;5060302;28;20225;-70
2022/03/29 10:50:46;;;;;;;23.87;13.43;;;9.50;99.90;;;;;;5059151;28;20221;-70
2022/03/29 10:53:37;;;;;;;22.73;12.43;;;9.50;99.90;;;;;;5062104;28;20266;-70
2022/03/29 10:56:24;;;;;;;26.80;14.17;;;9.60;99.90;;;;;;5063127;28;20232;-69
2022/03/29 10:59:10;;;;;;;26.93;14.83;;;9.60;99.90;;;;;;5060284;28;20248;-69
2022/03/29 11:02:06;;;;;;;25.73;14.03;;;9.70;99.90;;;;;;5061422;28;20233;-69
2022/03/29 11:05:04;;;;;;;28.10;14.17;;;9.90;99.90;;;;;;5061161;28;20216;-70
2022/03/29 11:07:52;;;;;;;25.47;13.13;;;9.90;99.90;;;;;;5060073;28;20194;-70
2022/03/29 11:10:44;;;;;;;22.80;13.53;;;9.80;99.90;;;;;;5058271;28;20213;-70
2022/03/29 11:13:30;;;;;;;21.27;13.07;;;9.80;99.90;;;;;;5076052;28;20222;-70
2022/03/29 11:16:28;;;;;;;27.10;13.70;;;9.80;99.90;;;;;;5059792;28;20190;-70
2022/03/29 11:19:38;;;;;;;26.90;13.57;;;9.90;99.90;;;;;;5060296;28;20197;-70
2022/03/29 11:22:29;;;;;;;28.07;15.40;;;9.90;99.90;;;;;;5060735;28;20254;-70
2022/03/29 11:25:13;;;;;;;28.47;14.03;;;9.90;99.90;;;;;;5059893;28;20233;-70
2022/03/29 11:28:05;;;;;;;22.60;13.57;;;9.90;99.90;;;;;;5075068;28;20248;-70
2022/03/29 11:30:56;;;;;;;25.10;13.50;;;9.80;99.90;;;;;;5058880;28;20217;-70
2022/03/29 11:33:42;;;;;;;24.13;13.57;;;9.90;99.90;;;;;;5058970;28;20329;-70
2022/03/29 11:36:26;;;;;;;25.17;12.93;;;9.90;99.90;;;;;;5059935;28;20196;-70
2022/03/29 11:39:25;;;;;;;23.67;12.40;;;9.90;99.90;;;;;;5062717;28;20281;-70
2022/03/29 11:42:09;;;;;;;24.53;13.07;;;9.90;99.90;;;;;;5061919;28;20193;-70
2022/03/29 11:44:54;;;;;;;21.93;11.40;;;9.90;99.90;;;;;;5063806;28;20251;-69
2022/03/29 11:47:39;;;;;;;33.37;13.23;;;10.00;99.90;;;;;;5075947;28;20198;-70
2022/03/29 11:50:29;;;;;;;21.63;11.67;;;10.00;99.90;;;;;;5076940;28;20224;-70
2022/03/29 11:53:22;;;;;;;17.20;11.33;;;10.00;99.90;;;;;;5077536;28;20210;-70
2022/03/29 11:56:08;;;;;;;24.83;12.73;;;10.10;99.90;;;;;;5063135;28;20345;-70
2022/03/29 11:58:54;;;;;;;23.13;12.20;;;10.00;99.90;;;;;;5062603;28;20205;-70
2022/03/29 12:01:38;;;;;;;19.30;11.27;;;10.10;99.90;;;;;;5061679;28;20217;-70
2022/03/29 12:04:22;;;;;;;24.10;13.27;;;10.10;99.90;;;;;;5077065;28;20683;-70
2022/03/29 12:07:06;;;;;;;24.40;12.20;;;10.10;99.90;;;;;;5074571;28;20729;-70
2022/03/29 12:09:50;;;;;;;24.50;12.80;;;10.10;99.90;;;;;;5062123;28;20217;-70
2022/03/29 12:12:35;;;;;;;19.70;11.63;;;10.10;99.90;;;;;;5063050;28;20193;-70
2022/03/29 12:15:20;;;;;;;30.10;12.23;;;10.10;99.90;;;;;;5064245;28;20218;-70
2022/03/29 12:21:13;;;;;;;23.33;11.80;;;10.20;99.90;;;;;;5066015;28;20281;-70
2022/03/29 12:24:07;;;;;;;24.93;11.97;;;10.30;99.90;;;;;;5066744;28;20669;-70
2022/03/29 12:27:04;;;;;;;19.70;11.20;;;10.40;99.90;;;;;;5064099;28;20214;-71
2022/03/29 12:29:56;;;;;;;23.70;13.30;;;10.40;99.90;;;;;;5065881;28;20279;-70
2022/03/29 12:32:45;;;;;;;24.87;11.87;;;10.50;99.90;;;;;;5064204;28;20273;-71
2022/03/29 12:35:30;;;;;;;19.47;11.93;;;10.50;99.90;;;;;;5064579;28;20535;-70
2022/03/29 12:38:14;;;;;;;19.50;12.03;;;10.60;99.90;;;;;;5062358;28;20255;-71
2022/03/29 12:41:00;;;;;;;23.37;12.30;;;10.60;99.90;;;;;;5077611;28;20225;-71
2022/03/29 12:43:54;;;;;;;22.73;11.50;;;10.50;99.90;;;;;;5060469;28;20241;-70
2022/03/29 12:46:44;;;;;;;18.63;11.37;;;10.50;99.90;;;;;;5064377;28;20190;-70
2022/03/29 12:49:30;;;;;;;32.77;11.53;;;10.50;99.90;;;;;;5079492;28;20988;-70
2022/03/29 12:52:14;;;;;;;23.43;10.80;;;10.50;99.90;;;;;;5063220;28;20205;-70
2022/03/29 12:55:02;;;;;;;16.70;9.53;;;10.60;99.90;;;;;;5062919;28;20202;-70
2022/03/29 12:57:46;;;;;;;26.43;12.20;;;10.60;99.90;;;;;;5062791;28;20208;-70
2022/03/29 13:00:39;;;;;;;19.70;10.47;;;10.60;99.90;;;;;;5064081;28;20290;-70
2022/03/29 13:03:23;;;;;;;20.00;11.00;;;10.70;99.90;;;;;;5062713;28;20193;-70
2022/03/29 13:06:08;;;;;;;25.77;11.53;;;10.70;99.90;;;;;;5063719;28;20270;-70
2022/03/29 13:09:04;;;;;;;16.80;9.97;;;10.70;99.90;;;;;;5063821;28;20318;-70
2022/03/29 13:12:07;;;;;;;23.07;10.97;;;10.70;99.90;;;;;;5075978;28;20246;-71
2022/03/29 13:14:51;;;;;;;17.83;9.87;;;10.80;99.90;;;;;;5064135;28;20201;-71
2022/03/29 13:17:35;;;;;;;20.60;8.90;;;10.80;99.90;;;;;;5064044;28;20185;-71
2022/03/29 13:20:23;;;;;;;18.50;8.57;;;10.90;99.90;;;;;;5063322;28;20291;-71
2022/03/29 13:23:08;;;;;;;18.93;8.97;;;10.90;99.90;;;;;;5064012;28;20432;-71
2022/03/29 13:25:52;;;;;;;22.53;9.27;;;10.90;99.90;;;;;;5064220;28;20700;-71
2022/03/29 13:28:37;;;;;;;19.70;9.33;;;11.00;99.90;;;;;;5062342;28;20283;-71
2022/03/29 13:31:29;;;;;;;20.90;9.73;;;11.00;99.90;;;;;;5063751;28;20364;-72
2022/03/29 13:34:15;;;;;;;16.40;9.10;;;10.90;99.90;;;;;;5064110;28;20205;-70
2022/03/29 13:36:59;;;;;;;16.57;8.30;;;11.00;99.90;;;;;;5064526;28;20186;-71
2022/03/29 13:39:44;;;;;;;18.47;8.13;;;11.00;99.90;;;;;;5061831;28;20241;-71
2022/03/29 13:42:28;;;;;;;25.67;8.67;;;11.00;99.90;;;;;;5062902;28;20272;-71
2022/03/29 13:45:12;;;;;;;15.27;8.10;;;11.00;99.90;;;;;;5061305;28;20631;-71
2022/03/29 13:47:57;;;;;;;18.07;7.80;;;11.00;99.90;;;;;;5060734;28;20245;-72
2022/03/29 13:50:42;;;;;;;17.67;8.60;;;11.00;99.90;;;;;;5061050;28;20214;-71
2022/03/29 13:53:27;;;;;;;19.53;7.87;;;11.00;99.90;;;;;;5060214;28;20704;-71
2022/03/29 13:56:12;;;;;;;17.40;8.07;;;11.00;99.90;;;;;;5058118;28;20209;-70
2022/03/29 13:59:01;;;;;;;15.30;8.13;;;11.00;99.90;;;;;;5059449;28;20206;-70
2022/03/29 14:01:45;;;;;;;17.03;7.60;;;11.00;99.90;;;;;;5061380;28;20256;-71
2022/03/29 14:04:30;;;;;;;20.60;8.27;;;11.00;99.90;;;;;;5063644;28;20236;-70
2022/03/29 14:07:14;;;;;;;12.53;7.80;;;11.00;99.90;;;;;;5058121;28;20213;-70
2022/03/29 14:09:58;;;;;;;20.20;8.17;;;11.10;99.90;;;;;;5064105;28;20239;-71
2022/03/29 14:12:42;;;;;;;17.47;7.40;;;11.10;99.90;;;;;;5062511;28;20729;-71
2022/03/29 14:15:27;;;;;;;14.87;8.43;;;11.10;99.90;;;;;;5063398;28;20201;-71
2022/03/29 14:18:12;;;;;;;17.03;7.70;;;11.10;99.90;;;;;;5063106;28;20189;-70
2022/03/29 14:20:59;;;;;;;22.17;8.53;;;11.10;99.90;;;;;;5062643;28;20229;-71
2022/03/29 14:23:43;;;;;;;16.93;8.33;;;11.10;99.90;;;;;;5061095;28;20186;-70